Lake Clark National Park, AK

2:05 AM AKST on November 23, 2014 (GMT -0900)
Sparrevohn | Change Station
CLOSE
Current Station
Airport
Location: Sparrevohn,
Elevation: 1588 ft
Nearby Weather Stations

Elev 1588 ft 61.10 °N, 155.57 °W | Updated 10 minutes ago

Mostly Cloudy
Mostly Cloudy
12 °F
Feels Like 12 °F
N
1
Wind Variable Wind from NW

Today
High -- | Low -- °F
--% Chance of Precip.
Yesterday
High -- | Low -- °F
Precip. -- in
9:38 AM 4:29 PM
New Moon, 1% visible
Pressure 29.32 in
Visibility 10.0 miles
Clouds Mostly Cloudy 6000 ft
Dew Point 10 °F
Humidity 92%
Rainfall 0.00 in
Snow Depth Not available.
UV 0 out of 12
Pollen Not available.
Air Quality Not available.
Flu Activity Not available.
METAR PASV 231055Z AUTO 32001KT 10SM BKN060 M11/M12 A2920 RMK AO2 SLP928 T11121123

More Conditions Fewer Conditions

Pressure 29.32 in
Visibility 10.0 miles
Clouds Mostly Cloudy 6000 ft
Dew Point 10 °F
Humidity 92%
Rainfall 0.00 in
Snow Depth Not available.
UV 0 out of 12
Pollen Not available.
Air Quality Not available.
Flu Activity Not available.
METAR PASV 231055Z AUTO 32001KT 10SM BKN060 M11/M12 A2920 RMK AO2 SLP928 T11121123

More Conditions Fewer Conditions

10-Day Weather Forecast

Almanac

Astronomy

Nov. 23, 2014 Rise Set
Actual Time
Civil Twilight
Nautical Twilight
Astronomical Twilight
Moon
Length of Visible Light
Length of Day
Tomorrow will be .
, % of the Moon is Illuminated

Today's Extremes

State Highs State Lows

Community

WunderPhotos

Upload Photos

1,773,033 photos uploaded!

WunderBlogs® & News

Nearby

Air Quality

  Air Quality AQ Index Pollutant
Not available.

Snow Depth

Station Depth Elevation

Earthquake Activity

City Distance Mag. Time & Date
Minimum magnitude displayed is 2.5.

Coastal Water Temperatures

Place Temperature

Nearby Weather Stations